Time;durP1;ratioP1;P1;durP2;ratioP2;P2;SDS_P1;SDS_P2;PMS_P1;PMS_P2;Temp;Humidity;BMP_temperature;BMP_pressure;BME280_temperature;BME280_humidity;BME280_pressure;Samples;Min_cycle;Max_cycle;Signal;HPM_P1;HPM_P2
2023/03/17 00:01:09;;;;;;;6.05;2.88;;;5.90;99.90;;;;;;5064458;28;20037;-69
2023/03/17 00:03:39;;;;;;;6.35;2.78;;;5.90;99.90;;;;;;5064087;28;20032;-72
2023/03/17 00:06:05;;;;;;;11.70;3.30;;;6.00;99.90;;;;;;5064115;28;20017;-69
2023/03/17 00:08:33;;;;;;;7.93;2.90;;;5.90;99.90;;;;;;5064050;28;20045;-71
2023/03/17 00:10:59;;;;;;;7.07;3.28;;;5.90;99.90;;;;;;5064021;28;20024;-69
2023/03/17 00:13:26;;;;;;;6.85;3.35;;;5.90;99.90;;;;;;5063659;28;20021;-71
2023/03/17 00:15:54;;;;;;;6.22;2.90;;;5.90;99.90;;;;;;5062672;28;20050;-70
2023/03/17 00:18:21;;;;;;;5.60;2.53;;;5.80;99.90;;;;;;5064064;28;20044;-69
2023/03/17 00:20:47;;;;;;;7.82;3.05;;;5.90;99.90;;;;;;5064093;28;20681;-70
2023/03/17 00:23:17;;;;;;;9.75;3.53;;;5.90;99.90;;;;;;5063198;28;20492;-70
2023/03/17 00:25:44;;;;;;;6.45;2.97;;;5.90;99.90;;;;;;5063271;28;20132;-72
2023/03/17 00:28:19;;;;;;;7.10;3.22;;;5.80;99.90;;;;;;5063584;28;20092;-70
2023/03/17 00:30:46;;;;;;;6.43;3.00;;;5.80;99.90;;;;;;5063721;28;20021;-69
2023/03/17 00:33:14;;;;;;;5.97;2.97;;;5.70;99.90;;;;;;5063191;28;20037;-72
2023/03/17 00:35:42;;;;;;;5.95;3.33;;;5.80;99.90;;;;;;5063387;28;20032;-70
2023/03/17 00:38:17;;;;;;;7.68;3.10;;;5.80;99.90;;;;;;5063752;28;20028;-72
2023/03/17 00:40:44;;;;;;;8.48;3.47;;;5.80;99.90;;;;;;5062829;28;20025;-71
2023/03/17 00:43:11;;;;;;;6.82;3.28;;;5.70;99.90;;;;;;5062192;28;20055;-69
2023/03/17 00:45:38;;;;;;;7.15;3.17;;;5.70;99.90;;;;;;5063120;28;20474;-70
2023/03/17 00:48:12;;;;;;;5.85;2.70;;;5.70;99.90;;;;;;5063105;28;20036;-69
2023/03/17 00:50:38;;;;;;;8.18;3.08;;;5.70;99.90;;;;;;5062722;28;20025;-69
2023/03/17 00:53:09;;;;;;;6.18;3.03;;;5.70;99.90;;;;;;5063341;28;20047;-70
2023/03/17 00:55:36;;;;;;;9.50;3.42;;;5.60;99.90;;;;;;5062804;28;20013;-72
2023/03/17 00:58:09;;;;;;;6.97;3.08;;;5.70;99.90;;;;;;5063398;28;20021;-71
2023/03/17 01:00:35;;;;;;;13.48;3.15;;;5.60;99.90;;;;;;5063329;28;20056;-71
2023/03/17 01:03:01;;;;;;;8.48;3.45;;;5.70;99.90;;;;;;5063056;28;20033;-73
2023/03/17 01:05:27;;;;;;;7.05;3.30;;;5.60;99.90;;;;;;5062458;28;20021;-71
2023/03/17 01:07:54;;;;;;;7.78;2.92;;;5.60;99.90;;;;;;5063225;28;20040;-71
2023/03/17 01:10:27;;;;;;;3.72;2.33;;;5.60;99.90;;;;;;5062689;28;20482;-73
2023/03/17 01:12:56;;;;;;;6.17;2.97;;;5.60;99.90;;;;;;5062915;28;20123;-72
2023/03/17 01:15:24;;;;;;;6.97;3.35;;;5.50;99.90;;;;;;5063124;28;20033;-70
2023/03/17 01:17:51;;;;;;;6.85;3.05;;;5.50;99.90;;;;;;5063091;28;20047;-72
2023/03/17 01:20:26;;;;;;;8.23;3.55;;;5.50;99.90;;;;;;5061419;28;20032;-71
2023/03/17 01:22:52;;;;;;;6.75;3.15;;;5.50;99.90;;;;;;5062716;28;20486;-71
2023/03/17 01:25:18;;;;;;;8.55;3.15;;;5.50;99.90;;;;;;5062640;28;20131;-71
2023/03/17 01:27:46;;;;;;;6.88;3.10;;;5.50;99.90;;;;;;5060770;28;20032;-71
2023/03/17 01:30:30;;;;;;;9.40;3.50;;;5.50;99.90;;;;;;5062722;28;20120;-71
2023/03/17 01:32:56;;;;;;;;;;;5.50;99.90;;;;;;5062515;28;20095;-73
2023/03/17 01:35:23;;;;;;;7.32;3.20;;;5.40;99.90;;;;;;5061446;28;20349;-72
2023/03/17 01:37:49;;;;;;;7.20;3.53;;;5.50;99.90;;;;;;5060878;28;20111;-72
2023/03/17 01:40:21;;;;;;;5.85;3.10;;;5.50;99.90;;;;;;5060995;28;20464;-71
2023/03/17 01:42:53;;;;;;;6.95;3.08;;;5.40;99.90;;;;;;5062184;28;20040;-74
2023/03/17 01:45:57;;;;;;;6.20;3.15;;;5.40;99.90;;;;;;5061906;28;20025;-72
2023/03/17 01:48:24;;;;;;;6.50;3.25;;;5.40;99.90;;;;;;5060637;28;20067;-71
2023/03/17 01:50:51;;;;;;;7.68;3.42;;;5.50;99.90;;;;;;5061904;28;20474;-71
2023/03/17 01:53:20;;;;;;;12.23;3.72;;;5.40;99.90;;;;;;5060789;28;20013;-71
2023/03/17 01:55:48;;;;;;;8.60;3.65;;;5.50;99.90;;;;;;5060541;28;20120;-70
2023/03/17 01:58:15;;;;;;;8.90;3.78;;;5.40;99.90;;;;;;5061581;28;20024;-70
2023/03/17 02:00:42;;;;;;;5.93;3.22;;;5.40;99.90;;;;;;5061380;28;20108;-70
2023/03/17 02:03:08;;;;;;;9.35;3.65;;;5.40;99.90;;;;;;5061983;28;20090;-70
2023/03/17 02:05:35;;;;;;;7.20;3.47;;;5.40;99.90;;;;;;5061833;28;20490;-70
2023/03/17 02:08:01;;;;;;;7.68;3.83;;;5.40;99.90;;;;;;5061355;28;20033;-71
2023/03/17 02:10:28;;;;;;;7.75;3.40;;;5.40;99.90;;;;;;5061983;28;20421;-71
2023/03/17 02:12:57;;;;;;;6.40;3.05;;;5.30;99.90;;;;;;5059943;28;20056;-72
2023/03/17 02:15:23;;;;;;;7.57;3.58;;;5.30;99.90;;;;;;5060221;28;20025;-70
2023/03/17 02:17:49;;;;;;;7.07;3.70;;;5.30;99.90;;;;;;5061856;28;20033;-70
2023/03/17 02:20:15;;;;;;;7.00;3.17;;;5.30;99.90;;;;;;5061456;28;20475;-71
2023/03/17 02:22:42;;;;;;;6.38;2.90;;;5.30;99.90;;;;;;5060778;28;20013;-72
2023/03/17 02:25:09;;;;;;;8.02;3.80;;;5.30;99.90;;;;;;5061217;28;20041;-70
2023/03/17 02:27:38;;;;;;;8.30;3.40;;;5.30;99.90;;;;;;5061576;28;20040;-72
2023/03/17 02:30:06;;;;;;;5.63;2.58;;;5.30;99.90;;;;;;5060829;28;20017;-73
2023/03/17 02:32:35;;;;;;;9.68;3.85;;;5.30;99.90;;;;;;5061678;28;20063;-70
2023/03/17 02:35:01;;;;;;;5.43;2.83;;;5.30;99.90;;;;;;5059682;28;20029;-71
2023/03/17 02:37:27;;;;;;;6.45;3.40;;;5.30;99.90;;;;;;5061144;28;20086;-72
2023/03/17 02:39:52;;;;;;;10.05;3.65;;;5.20;99.90;;;;;;5060162;28;20056;-70
2023/03/17 02:42:19;;;;;;;6.90;3.65;;;5.20;99.90;;;;;;5060425;28;20037;-70
2023/03/17 02:44:44;;;;;;;6.90;3.22;;;5.30;99.90;;;;;;5059459;28;20028;-70
2023/03/17 02:47:11;;;;;;;7.30;3.38;;;5.30;99.90;;;;;;5061131;28;20045;-70
2023/03/17 02:49:39;;;;;;;10.00;3.70;;;5.20;99.90;;;;;;5061062;28;20029;-71
2023/03/17 02:52:05;;;;;;;8.13;3.47;;;5.20;99.90;;;;;;5061124;28;20034;-70
2023/03/17 02:54:30;;;;;;;6.47;3.40;;;5.10;99.90;;;;;;5061155;28;20064;-70
2023/03/17 02:56:56;;;;;;;9.57;3.88;;;5.10;99.90;;;;;;5061475;28;20052;-71
2023/03/17 02:59:22;;;;;;;7.18;3.47;;;5.10;99.90;;;;;;5061332;28;20033;-71
2023/03/17 03:01:49;;;;;;;8.85;4.10;;;5.10;99.90;;;;;;5058089;28;20052;-71
2023/03/17 03:04:15;;;;;;;8.38;3.88;;;5.00;99.90;;;;;;5059545;28;20032;-71
2023/03/17 03:06:41;;;;;;;9.60;3.25;;;5.10;99.90;;;;;;5060063;28;20499;-71
2023/03/17 03:09:07;;;;;;;8.85;3.60;;;5.00;99.90;;;;;;5060182;28;20661;-70
2023/03/17 03:11:33;;;;;;;8.10;3.90;;;5.00;99.90;;;;;;5059144;28;20044;-70
2023/03/17 03:13:59;;;;;;;7.90;3.83;;;4.90;99.90;;;;;;5059960;28;21036;-70
2023/03/17 03:16:25;;;;;;;5.95;3.30;;;4.90;99.90;;;;;;5060055;28;20083;-70
2023/03/17 03:18:50;;;;;;;7.18;3.17;;;4.90;99.90;;;;;;5059848;28;20044;-71
2023/03/17 03:21:16;;;;;;;6.90;3.50;;;4.90;99.90;;;;;;5059790;28;20033;-70
2023/03/17 03:23:42;;;;;;;9.55;4.07;;;4.90;99.90;;;;;;5059159;28;20076;-70
2023/03/17 03:26:08;;;;;;;9.57;3.75;;;4.80;99.90;;;;;;5059755;28;20064;-71
2023/03/17 03:28:33;;;;;;;6.50;3.45;;;4.80;99.90;;;;;;5059989;28;20111;-70
2023/03/17 03:30:59;;;;;;;8.30;3.50;;;4.90;99.90;;;;;;5059883;28;20029;-71
2023/03/17 03:33:25;;;;;;;7.32;3.78;;;4.80;99.90;;;;;;5062414;28;20033;-71
2023/03/17 03:35:50;;;;;;;7.43;3.50;;;4.80;99.90;;;;;;5063769;28;20119;-70
2023/03/17 03:38:16;;;;;;;6.53;3.40;;;4.80;99.90;;;;;;5063328;28;20033;-74
2023/03/17 03:40:42;;;;;;;7.05;3.15;;;4.80;99.90;;;;;;5063625;28;20043;-71
2023/03/17 03:43:07;;;;;;;7.63;3.90;;;4.70;99.90;;;;;;5062248;28;20024;-73
2023/03/17 03:45:33;;;;;;;8.82;3.95;;;4.70;99.90;;;;;;5062255;28;20085;-72
2023/03/17 03:47:58;;;;;;;11.43;3.92;;;4.60;99.90;;;;;;5063419;28;20049;-72
2023/03/17 03:50:24;;;;;;;7.28;3.90;;;4.70;99.90;;;;;;5062629;28;20025;-70
2023/03/17 03:52:50;;;;;;;10.60;3.35;;;4.60;99.90;;;;;;5062343;28;20025;-71
2023/03/17 03:55:16;;;;;;;6.50;3.90;;;4.70;99.90;;;;;;5063306;28;20032;-71
2023/03/17 03:57:42;;;;;;;7.97;3.75;;;4.60;99.90;;;;;;5063702;28;20040;-70
2023/03/17 04:00:09;;;;;;;8.13;4.28;;;4.60;99.90;;;;;;5063211;28;20025;-70
2023/03/17 04:02:35;;;;;;;7.18;4.00;;;4.60;99.90;;;;;;5061904;28;20031;-70
2023/03/17 04:05:01;;;;;;;7.22;4.07;;;4.50;99.90;;;;;;5062567;28;20033;-71
2023/03/17 04:07:28;;;;;;;10.80;3.85;;;4.50;99.90;;;;;;5063068;28;20035;-72
2023/03/17 04:09:53;;;;;;;7.22;4.00;;;4.50;99.90;;;;;;5063500;28;20036;-70
2023/03/17 04:12:19;;;;;;;8.57;3.92;;;4.50;99.90;;;;;;5063178;28;20029;-70
2023/03/17 04:14:45;;;;;;;11.13;4.07;;;4.50;99.90;;;;;;5063182;28;20032;-71
2023/03/17 04:17:12;;;;;;;7.65;3.58;;;4.60;99.90;;;;;;5062901;28;20085;-71
2023/03/17 04:19:38;;;;;;;8.82;4.20;;;4.50;99.90;;;;;;5062967;28;20036;-70
2023/03/17 04:22:05;;;;;;;7.82;4.20;;;4.50;99.90;;;;;;5063054;28;20051;-70
2023/03/17 04:24:31;;;;;;;8.82;3.80;;;4.40;99.90;;;;;;5062020;28;20070;-71
2023/03/17 04:26:56;;;;;;;7.35;3.70;;;4.50;99.90;;;;;;5061876;28;20143;-70
2023/03/17 04:29:22;;;;;;;11.02;4.80;;;4.40;99.90;;;;;;5063211;28;20079;-70
2023/03/17 04:31:47;;;;;;;9.88;4.57;;;4.40;99.90;;;;;;5063029;28;20040;-71
2023/03/17 04:34:15;;;;;;;7.55;4.30;;;4.40;99.90;;;;;;5062794;28;20025;-71
2023/03/17 04:36:41;;;;;;;8.60;4.25;;;4.50;99.90;;;;;;5060365;28;20561;-71
2023/03/17 04:39:07;;;;;;;7.78;4.22;;;4.40;99.90;;;;;;5062414;28;20028;-70
2023/03/17 04:41:33;;;;;;;9.80;4.60;;;4.40;99.90;;;;;;5062299;28;20017;-70
2023/03/17 04:43:59;;;;;;;11.32;4.38;;;4.30;99.90;;;;;;5061428;28;20040;-70
2023/03/17 04:46:25;;;;;;;11.23;4.47;;;4.30;99.90;;;;;;5062495;28;20029;-71
2023/03/17 04:48:50;;;;;;;7.38;4.03;;;4.30;99.90;;;;;;5061112;28;20055;-71
2023/03/17 04:51:16;;;;;;;7.82;4.00;;;4.40;99.90;;;;;;5062627;28;20021;-71
2023/03/17 04:53:42;;;;;;;12.45;4.80;;;4.40;99.90;;;;;;5062261;28;20063;-70
2023/03/17 04:56:08;;;;;;;13.80;4.57;;;4.30;99.90;;;;;;5062527;28;20033;-69
2023/03/17 04:58:33;;;;;;;12.88;4.95;;;4.30;99.90;;;;;;5060871;28;20052;-72
2023/03/17 05:01:00;;;;;;;8.70;4.55;;;4.30;99.90;;;;;;5062880;28;20025;-71
2023/03/17 05:03:26;;;;;;;9.73;4.35;;;4.30;99.90;;;;;;5063233;28;20659;-71
2023/03/17 05:05:52;;;;;;;10.45;5.00;;;4.30;99.90;;;;;;5061845;28;20017;-71
2023/03/17 05:08:18;;;;;;;10.85;4.55;;;4.30;99.90;;;;;;5063241;28;20067;-71
2023/03/17 05:10:44;;;;;;;9.48;4.80;;;4.30;99.90;;;;;;5061689;28;20056;-69
2023/03/17 05:13:10;;;;;;;7.57;4.07;;;4.30;99.90;;;;;;5061490;28;20025;-70
2023/03/17 05:15:35;;;;;;;12.68;4.63;;;4.30;99.90;;;;;;5062832;28;20029;-70
2023/03/17 05:18:02;;;;;;;12.40;4.72;;;4.30;99.90;;;;;;5062728;28;20021;-71
2023/03/17 05:20:27;;;;;;;9.45;4.53;;;4.30;99.90;;;;;;5062882;28;20017;-71
2023/03/17 05:22:53;;;;;;;9.25;4.38;;;4.30;99.90;;;;;;5062310;28;20017;-71
2023/03/17 05:25:18;;;;;;;10.27;5.20;;;4.30;99.90;;;;;;5061181;28;20033;-70
2023/03/17 05:27:44;;;;;;;10.27;4.85;;;4.30;99.90;;;;;;5062722;28;20052;-71
2023/03/17 05:30:10;;;;;;;13.18;4.78;;;4.20;99.90;;;;;;5062567;28;20024;-70
2023/03/17 05:32:36;;;;;;;11.68;4.90;;;4.20;99.90;;;;;;5062832;28;20660;-70
2023/03/17 05:35:02;;;;;;;10.23;4.80;;;4.20;99.90;;;;;;5062503;28;20568;-70
2023/03/17 05:37:28;;;;;;;12.73;5.85;;;4.20;99.90;;;;;;5062620;28;20032;-70
2023/03/17 05:39:53;;;;;;;12.60;4.88;;;4.20;99.90;;;;;;5062502;28;20025;-70
2023/03/17 05:42:19;;;;;;;10.77;5.15;;;4.20;99.90;;;;;;5062700;28;20017;-70
2023/03/17 05:44:45;;;;;;;12.45;4.95;;;4.20;99.90;;;;;;5062226;28;20032;-71
2023/03/17 05:47:10;;;;;;;11.60;5.38;;;4.20;99.90;;;;;;5060779;28;20040;-72
2023/03/17 05:49:36;;;;;;;10.95;4.85;;;4.20;99.90;;;;;;5062395;28;20025;-71
2023/03/17 05:52:01;;;;;;;9.38;5.05;;;4.20;99.90;;;;;;5062033;28;20370;-71
2023/03/17 05:54:27;;;;;;;13.85;5.28;;;4.20;99.90;;;;;;5061943;28;20044;-70
2023/03/17 05:56:53;;;;;;;11.88;5.53;;;4.30;99.90;;;;;;5060722;28;20029;-71
2023/03/17 05:59:18;;;;;;;12.45;5.28;;;4.20;99.90;;;;;;5061431;28;20025;-71
2023/03/17 06:01:44;;;;;;;12.23;5.30;;;4.30;99.90;;;;;;5062102;28;20037;-71
2023/03/17 06:04:10;;;;;;;9.93;5.38;;;4.30;99.90;;;;;;5061944;28;20059;-71
2023/03/17 06:06:36;;;;;;;11.40;5.97;;;4.30;99.90;;;;;;5061798;28;20017;-70
2023/03/17 06:09:01;;;;;;;13.50;6.18;;;4.20;99.90;;;;;;5061853;28;20383;-72
2023/03/17 06:11:27;;;;;;;11.10;5.97;;;4.30;99.90;;;;;;5061803;28;20024;-71
2023/03/17 06:13:53;;;;;;;16.88;5.53;;;4.40;99.90;;;;;;5061902;28;20055;-72
2023/03/17 06:16:18;;;;;;;14.07;6.25;;;4.40;99.90;;;;;;5062035;28;20059;-70
2023/03/17 06:18:44;;;;;;;13.13;6.60;;;4.40;99.90;;;;;;5061555;28;20100;-71
2023/03/17 06:21:11;;;;;;;11.90;6.05;;;4.50;99.90;;;;;;5061160;28;20024;-71
2023/03/17 06:23:37;;;;;;;12.82;6.80;;;4.50;99.90;;;;;;5061576;28;20029;-71
2023/03/17 06:26:03;;;;;;;14.02;6.05;;;4.60;99.90;;;;;;5061756;28;20053;-70
2023/03/17 06:28:29;;;;;;;14.25;6.22;;;4.60;99.90;;;;;;5060866;28;20040;-69
2023/03/17 06:30:55;;;;;;;11.10;5.35;;;4.70;99.90;;;;;;5061779;28;20084;-69
2023/03/17 06:33:21;;;;;;;10.23;5.50;;;4.70;99.90;;;;;;5060012;28;20089;-70
2023/03/17 06:35:47;;;;;;;9.00;4.78;;;4.80;99.90;;;;;;5058781;28;20132;-71
2023/03/17 06:38:12;;;;;;;10.60;5.22;;;4.80;99.90;;;;;;5061081;28;20099;-71
2023/03/17 06:40:38;;;;;;;15.70;5.15;;;4.90;99.90;;;;;;5060013;28;20062;-71
2023/03/17 06:43:03;;;;;;;13.98;5.35;;;4.90;99.90;;;;;;5059993;28;20446;-70
2023/03/17 06:45:31;;;;;;;11.93;5.10;;;5.00;99.90;;;;;;5061065;28;20092;-70
2023/03/17 06:47:57;;;;;;;9.48;5.25;;;5.10;99.90;;;;;;5056608;28;20489;-71
2023/03/17 06:50:23;;;;;;;11.52;5.25;;;5.10;99.90;;;;;;5061067;28;20116;-71
2023/03/17 06:52:49;;;;;;;10.90;5.03;;;5.20;99.90;;;;;;5056665;28;20069;-74
2023/03/17 06:55:14;;;;;;;9.27;4.97;;;5.30;99.90;;;;;;5059512;28;20516;-70
2023/03/17 06:57:40;;;;;;;10.23;4.93;;;5.30;99.90;;;;;;5058106;28;20033;-70
2023/03/17 07:00:07;;;;;;;11.25;5.18;;;5.40;99.90;;;;;;5058986;28;20032;-71
2023/03/17 07:02:33;;;;;;;10.02;4.93;;;5.40;99.90;;;;;;5060213;28;20060;-70
2023/03/17 07:04:59;;;;;;;11.40;5.10;;;5.50;99.90;;;;;;5060788;28;20033;-72
2023/03/17 07:07:26;;;;;;;12.25;5.30;;;5.50;99.90;;;;;;5060476;28;20039;-70
2023/03/17 07:09:52;;;;;;;11.18;5.72;;;5.60;99.90;;;;;;5061241;28;20021;-71
2023/03/17 07:12:19;;;;;;;12.35;5.22;;;5.60;99.90;;;;;;5065218;28;20060;-71
2023/03/17 07:14:45;;;;;;;11.13;5.68;;;5.70;99.90;;;;;;5051645;28;20111;-72
2023/03/17 07:17:13;;;;;;;13.27;5.50;;;5.80;99.90;;;;;;5054089;28;20136;-71
2023/03/17 07:19:39;;;;;;;13.57;5.55;;;5.90;99.90;;;;;;5054570;28;20512;-71
2023/03/17 07:22:06;;;;;;;14.60;6.05;;;6.00;99.90;;;;;;5056340;28;20029;-70
2023/03/17 07:24:32;;;;;;;10.35;5.40;;;6.20;99.90;;;;;;5059326;28;20056;-71
2023/03/17 07:26:58;;;;;;;10.15;5.25;;;6.30;99.90;;;;;;5059646;28;20493;-71
2023/03/17 07:29:23;;;;;;;9.15;4.95;;;6.50;99.90;;;;;;5061445;28;20045;-72
2023/03/17 07:31:49;;;;;;;13.35;5.55;;;6.70;99.90;;;;;;5060875;28;20033;-71
2023/03/17 07:34:15;;;;;;;13.15;5.45;;;6.90;99.90;;;;;;5060512;28;20032;-71
2023/03/17 07:36:41;;;;;;;10.80;5.47;;;7.00;99.90;;;;;;5063616;28;20039;-72
2023/03/17 07:39:07;;;;;;;10.43;5.78;;;7.10;99.90;;;;;;5064651;28;20021;-71
2023/03/17 07:41:33;;;;;;;9.80;5.40;;;7.20;99.90;;;;;;5063290;28;20029;-71
2023/03/17 07:43:59;;;;;;;10.35;5.80;;;7.30;99.90;;;;;;5064884;28;20086;-70
2023/03/17 07:46:25;;;;;;;13.57;6.65;;;7.40;99.90;;;;;;5064675;28;20047;-70
2023/03/17 07:48:52;;;;;;;10.00;5.43;;;7.40;99.90;;;;;;5063095;28;20096;-71
2023/03/17 07:51:21;;;;;;;13.07;5.65;;;7.50;99.90;;;;;;5064476;28;20025;-70
2023/03/17 07:53:48;;;;;;;11.07;5.55;;;7.60;99.90;;;;;;5062813;28;20792;-71
2023/03/17 07:56:15;;;;;;;14.65;6.15;;;7.80;99.90;;;;;;5064389;28;20017;-71
2023/03/17 07:58:41;;;;;;;14.48;6.00;;;8.10;99.90;;;;;;5062326;28;20036;-72
2023/03/17 08:01:07;;;;;;;10.82;5.38;;;8.30;99.90;;;;;;5064218;28;20029;-72
2023/03/17 08:03:33;;;;;;;11.50;5.70;;;8.70;99.90;;;;;;5064176;28;20029;-70
2023/03/17 08:05:59;;;;;;;10.98;5.55;;;8.90;99.90;;;;;;5062708;28;20037;-71
2023/03/17 08:08:27;;;;;;;10.52;5.15;;;9.20;99.90;;;;;;5064076;28;20033;-70
2023/03/17 08:11:00;;;;;;;9.65;5.47;;;9.40;99.90;;;;;;5061293;28;20634;-70
2023/03/17 08:13:26;;;;;;;11.40;5.57;;;9.70;99.90;;;;;;5061866;28;20383;-74
2023/03/17 08:15:52;;;;;;;10.38;5.25;;;9.90;99.90;;;;;;5062412;28;20048;-74
2023/03/17 08:18:17;;;;;;;10.80;5.65;;;10.00;99.90;;;;;;5063666;28;20029;-72
2023/03/17 08:20:43;;;;;;;9.32;5.43;;;10.20;99.90;;;;;;5062591;28;20021;-70
2023/03/17 08:23:10;;;;;;;9.18;5.35;;;10.30;99.90;;;;;;5063567;28;20124;-70
2023/03/17 08:25:35;;;;;;;11.75;5.55;;;10.40;99.90;;;;;;5061690;28;20437;-71
2023/03/17 08:28:02;;;;;;;12.07;5.53;;;10.60;99.90;;;;;;5062506;28;20032;-72
2023/03/17 08:30:28;;;;;;;10.63;5.75;;;10.70;99.90;;;;;;5061082;28;20049;-73
2023/03/17 08:32:54;;;;;;;9.25;5.30;;;10.60;99.90;;;;;;5060352;28;20035;-70
2023/03/17 08:35:20;;;;;;;9.93;5.82;;;10.60;99.90;;;;;;5060773;28;20167;-70
2023/03/17 08:37:46;;;;;;;13.35;6.20;;;10.80;99.90;;;;;;5060449;28;20037;-69
2023/03/17 08:40:15;;;;;;;10.95;5.35;;;10.90;99.90;;;;;;5060800;28;20043;-70
2023/03/17 08:42:45;;;;;;;12.00;5.82;;;11.00;99.90;;;;;;5061678;28;20074;-71
2023/03/17 08:45:12;;;;;;;10.13;5.25;;;11.20;99.90;;;;;;5060524;28;20079;-72
2023/03/17 08:47:39;;;;;;;9.45;4.85;;;11.30;99.90;;;;;;5060099;28;20037;-70
2023/03/17 08:50:08;;;;;;;10.63;5.70;;;11.30;99.90;;;;;;5062578;28;20021;-70
2023/03/17 08:52:34;;;;;;;10.68;5.82;;;11.40;99.90;;;;;;5060743;28;20064;-70
2023/03/17 08:55:00;;;;;;;12.40;5.47;;;11.60;99.90;;;;;;5061097;28;20429;-71
2023/03/17 08:57:26;;;;;;;10.45;5.25;;;11.70;99.90;;;;;;5063391;28;20033;-71
2023/03/17 08:59:52;;;;;;;15.63;5.47;;;11.80;99.90;;;;;;5062902;28;20024;-70
2023/03/17 09:02:19;;;;;;;12.52;5.43;;;11.70;99.90;;;;;;5062993;28;20025;-72
2023/03/17 09:04:45;;;;;;;10.35;5.68;;;11.70;99.90;;;;;;5061434;28;20033;-69
2023/03/17 09:07:11;;;;;;;12.07;5.43;;;11.80;99.90;;;;;;5063085;28;20170;-73
2023/03/17 09:09:37;;;;;;;9.20;5.72;;;11.90;99.90;;;;;;5062444;28;20473;-73
2023/03/17 09:12:05;;;;;;;11.90;5.30;;;12.00;99.90;;;;;;5061585;28;20029;-71
2023/03/17 09:14:31;;;;;;;9.77;5.47;;;12.10;99.90;;;;;;5063119;28;20052;-74
2023/03/17 09:16:57;;;;;;;8.75;5.07;;;12.20;99.90;;;;;;5062584;28;20066;-74
2023/03/17 09:19:23;;;;;;;10.48;5.95;;;12.30;99.90;;;;;;5063015;28;20033;-72
2023/03/17 09:21:50;;;;;;;10.68;6.07;;;12.40;99.90;;;;;;5060379;28;20029;-70
2023/03/17 09:24:17;;;;;;;9.60;5.55;;;12.50;99.90;;;;;;5062660;28;20052;-73
2023/03/17 09:26:42;;;;;;;12.25;6.53;;;12.40;99.90;;;;;;5058027;28;20097;-71
2023/03/17 09:29:08;;;;;;;9.50;5.97;;;12.40;99.90;;;;;;5059029;28;20068;-72
2023/03/17 09:31:37;;;;;;;9.48;5.43;;;12.40;99.90;;;;;;5059840;28;20037;-70
2023/03/17 09:34:04;;;;;;;7.75;4.38;;;12.40;99.90;;;;;;5062202;28;20146;-72
2023/03/17 09:36:32;;;;;;;10.38;5.28;;;12.30;99.90;;;;;;5061362;28;20037;-71
2023/03/17 09:38:58;;;;;;;12.68;6.00;;;12.10;99.90;;;;;;5061143;28;20596;-71
2023/03/17 09:41:29;;;;;;;9.75;6.03;;;12.00;99.90;;;;;;5060816;28;20029;-71
2023/03/17 09:44:23;;;;;;;10.13;5.85;;;11.90;99.90;;;;;;5058943;28;20028;-70
2023/03/17 09:46:55;;;;;;;10.35;6.20;;;11.80;99.90;;;;;;5058821;28;20075;-69
2023/03/17 09:49:34;;;;;;;12.02;6.18;;;11.90;99.90;;;;;;5058150;28;20047;-69
2023/03/17 09:52:01;;;;;;;12.50;5.60;;;12.10;99.90;;;;;;5056990;28;20172;-70
2023/03/17 09:54:32;;;;;;;12.38;6.03;;;12.30;99.90;;;;;;5057038;28;20059;-70
2023/03/17 09:57:06;;;;;;;11.50;6.05;;;12.60;99.90;;;;;;5057978;28;20055;-70
2023/03/17 09:59:35;;;;;;;9.77;5.57;;;12.90;99.90;;;;;;5058945;28;20036;-72
2023/03/17 10:02:01;;;;;;;11.70;6.30;;;12.90;99.90;;;;;;5058770;28;20037;-70
2023/03/17 10:04:27;;;;;;;12.60;6.85;;;13.00;99.90;;;;;;5060595;28;20029;-71
2023/03/17 10:07:02;;;;;;;12.02;6.90;;;13.20;99.90;;;;;;5060982;28;20067;-69
2023/03/17 10:09:45;;;;;;;10.15;5.72;;;13.40;99.90;;;;;;5059265;28;20047;-71
2023/03/17 10:12:16;;;;;;;10.32;5.90;;;13.60;99.90;;;;;;5060764;28;20033;-70
2023/03/17 10:15:00;;;;;;;11.45;6.07;;;13.60;99.90;;;;;;5059880;28;20594;-70
2023/03/17 10:17:40;;;;;;;9.27;5.75;;;13.60;99.90;;;;;;5061974;28;20032;-71
2023/03/17 10:20:44;;;;;;;7.85;5.57;;;13.80;99.90;;;;;;5061995;28;20043;-70
2023/03/17 10:23:14;;;;;;;10.10;5.93;;;14.20;99.90;;;;;;5049791;28;20040;-70
2023/03/17 10:25:40;;;;;;;10.40;5.68;;;14.40;99.90;;;;;;5061069;28;20040;-71
2023/03/17 10:28:25;;;;;;;8.63;5.78;;;14.40;99.90;;;;;;5061673;28;20103;-71
2023/03/17 10:30:52;;;;;;;13.10;6.00;;;14.60;99.90;;;;;;5059406;28;20471;-69
2023/03/17 10:33:18;;;;;;;10.32;5.72;;;14.70;99.90;;;;;;5059817;28;20079;-69
2023/03/17 10:35:44;;;;;;;14.30;6.03;;;15.00;99.90;;;;;;5060055;28;20021;-69
2023/03/17 10:38:16;;;;;;;11.82;6.18;;;15.20;99.90;;;;;;5059353;28;20067;-70
2023/03/17 10:40:46;;;;;;;10.45;6.22;;;15.40;99.90;;;;;;5060656;28;20095;-68
2023/03/17 10:43:17;;;;;;;13.82;6.00;;;15.50;99.90;;;;;;5059872;28;20021;-69
2023/03/17 10:46:01;;;;;;;8.60;5.32;;;15.60;99.90;;;;;;5060680;28;20112;-69
2023/03/17 10:48:29;;;;;;;11.60;6.05;;;15.70;99.90;;;;;;5059643;28;20039;-70
2023/03/17 10:50:57;;;;;;;10.60;6.38;;;15.70;99.90;;;;;;5060286;28;20640;-73
2023/03/17 10:53:28;;;;;;;8.73;6.05;;;15.70;99.90;;;;;;5058983;28;20025;-69
2023/03/17 10:56:06;;;;;;;9.82;6.13;;;15.80;99.90;;;;;;5061385;28;20013;-72
2023/03/17 10:58:53;;;;;;;9.95;5.95;;;15.90;99.90;;;;;;5058414;28;20142;-72
2023/03/17 11:01:29;;;;;;;8.93;4.55;;;16.10;99.90;;;;;;5061238;28;20035;-68
2023/03/17 11:03:56;;;;;;;10.38;5.50;;;16.20;99.90;;;;;;5059585;28;20104;-72
2023/03/17 11:06:35;;;;;;;9.95;4.57;;;16.20;99.90;;;;;;5056574;28;20033;-69
2023/03/17 11:09:08;;;;;;;8.05;4.75;;;16.20;99.90;;;;;;5049922;28;20049;-71
2023/03/17 11:11:43;;;;;;;9.05;4.90;;;16.30;99.90;;;;;;5055826;28;20036;-73
2023/03/17 11:14:15;;;;;;;7.88;4.60;;;16.50;99.90;;;;;;5059456;28;20048;-69
2023/03/17 11:16:55;;;;;;;9.88;5.43;;;16.70;99.90;;;;;;5056812;28;20028;-71
2023/03/17 11:19:49;;;;;;;8.95;4.80;;;16.90;99.90;;;;;;5058541;28;20024;-71
2023/03/17 11:22:33;;;;;;;10.97;4.70;;;17.20;99.90;;;;;;5059951;28;20021;-71
2023/03/17 11:25:01;;;;;;;9.57;5.30;;;17.30;99.90;;;;;;5058023;28;20037;-73
2023/03/17 11:27:31;;;;;;;10.07;5.20;;;17.40;99.90;;;;;;5059074;28;20056;-75
2023/03/17 11:29:57;;;;;;;9.23;5.07;;;17.50;99.90;;;;;;5060022;28;20025;-71
2023/03/17 11:32:35;;;;;;;8.65;5.20;;;17.60;99.90;;;;;;5060412;28;20048;-71
2023/03/17 11:35:20;;;;;;;9.13;5.53;;;17.70;99.90;;;;;;5056617;28;20029;-74
2023/03/17 11:38:07;;;;;;;7.25;4.80;;;18.00;99.90;;;;;;5059662;28;20029;-75
2023/03/17 11:40:53;;;;;;;9.43;5.72;;;18.10;99.90;;;;;;5060751;28;20025;-74
2023/03/17 11:43:37;;;;;;;7.63;5.13;;;17.90;99.90;;;;;;5060079;28;20025;-69
2023/03/17 11:46:12;;;;;;;9.52;5.35;;;17.90;99.90;;;;;;5059612;28;20485;-70
2023/03/17 11:48:47;;;;;;;8.18;4.30;;;18.20;99.90;;;;;;5058433;28;20060;-72
2023/03/17 11:51:26;;;;;;;9.38;5.22;;;18.50;99.90;;;;;;5059232;28;20095;-73
2023/03/17 11:54:05;;;;;;;12.40;5.53;;;18.40;99.90;;;;;;5059771;28;20110;-71
2023/03/17 11:56:54;;;;;;;10.60;5.03;;;18.50;99.90;;;;;;5062400;28;20132;-73
2023/03/17 11:59:22;;;;;;;9.27;5.55;;;18.60;99.90;;;;;;5064991;28;20037;-71
2023/03/17 12:02:10;;;;;;;9.07;5.47;;;18.70;99.90;;;;;;5062975;28;20033;-74
2023/03/17 12:04:42;;;;;;;17.23;6.00;;;18.50;99.90;;;;;;5062895;28;20033;-72
2023/03/17 12:07:50;;;;;;;8.70;5.22;;;18.30;99.90;;;;;;5061974;28;20032;-75
2023/03/17 12:10:33;;;;;;;9.73;5.25;;;18.00;99.90;;;;;;5053583;28;20076;-73
2023/03/17 12:13:41;;;;;;;13.52;5.75;;;17.80;99.90;;;;;;5063108;28;20089;-72
2023/03/17 12:16:16;;;;;;;11.30;5.72;;;17.80;99.90;;;;;;5064269;28;20060;-73
2023/03/17 12:19:35;;;;;;;9.77;5.43;;;18.00;99.90;;;;;;5064145;28;20021;-72
2023/03/17 12:22:31;;;;;;;21.42;5.57;;;18.50;99.90;;;;;;5038100;28;20065;-74
2023/03/17 12:25:15;;;;;;;8.57;5.18;;;19.30;99.90;;;;;;5059574;28;20061;-72
2023/03/17 12:28:15;;;;;;;10.10;5.68;;;19.60;99.90;;;;;;5056411;28;20132;-72
2023/03/17 12:30:48;;;;;;;9.02;5.35;;;19.60;99.90;;;;;;5062467;28;20025;-72
2023/03/17 12:33:26;;;;;;;11.75;5.65;;;19.60;99.90;;;;;;5061930;28;20440;-70
2023/03/17 12:35:52;;;;;;;10.95;5.93;;;19.60;99.90;;;;;;5063661;28;20448;-72
2023/03/17 12:38:28;;;;;;;12.88;5.55;;;19.60;99.90;;;;;;5062696;28;20120;-73
2023/03/17 12:41:02;;;;;;;10.25;5.60;;;19.70;99.90;;;;;;5062689;28;20040;-72
2023/03/17 12:43:36;;;;;;;10.27;5.63;;;20.00;99.90;;;;;;5063534;28;20498;-75
2023/03/17 12:46:21;;;;;;;8.52;5.57;;;20.40;99.90;;;;;;5062304;28;20117;-74
2023/03/17 12:49:05;;;;;;;10.80;5.75;;;20.50;99.90;;;;;;5062239;28;20041;-74
2023/03/17 12:52:19;;;;;;;12.25;5.55;;;20.70;99.90;;;;;;5063136;28;20021;-74
2023/03/17 12:54:48;;;;;;;9.70;5.68;;;20.80;99.90;;;;;;5024810;28;20029;-72
2023/03/17 12:57:19;;;;;;;10.38;5.55;;;21.00;99.90;;;;;;5060901;28;20059;-73
2023/03/17 12:59:47;;;;;;;14.20;5.93;;;21.20;99.90;;;;;;5062279;28;20028;-71